Time;durP1;ratioP1;P1;durP2;ratioP2;P2;SDS_P1;SDS_P2;PMS_P1;PMS_P2;Temp;Humidity;BMP_temperature;BMP_pressure;BME280_temperature;BME280_humidity;BME280_pressure;Samples;Min_cycle;Max_cycle;Signal;HPM_P1;HPM_P2
2022/08/03 00:01:23;;;;;;;5.53;5.22;;;;;;;19.34;83.44;101162.94;6049551;23;20033;-75
2022/08/03 00:03:53;;;;;;;5.50;5.20;;;;;;;19.46;83.97;101180.56;6020660;23;20029;-77
2022/08/03 00:06:21;;;;;;;5.60;5.30;;;;;;;19.16;83.96;101143.16;6018469;23;20081;-77
2022/08/03 00:08:48;;;;;;;5.50;5.30;;;;;;;19.65;84.23;101217.19;6006095;23;20023;-78
2022/08/03 00:11:14;;;;;;;5.47;5.28;;;;;;;19.85;84.11;101263.53;6050376;23;20357;-78
2022/08/03 00:13:41;;;;;;;5.35;5.15;;;;;;;18.97;83.95;101107.44;6006275;23;20087;-77
2022/08/03 00:16:09;;;;;;;6.55;6.25;;;;;;;19.53;84.64;101205.72;6048351;23;20090;-78
2022/08/03 00:18:36;;;;;;;5.50;5.30;;;;;;;19.43;84.04;101188.81;6031669;23;20027;-77
2022/08/03 00:21:03;;;;;;;6.55;6.25;;;;;;;19.03;83.89;101114.91;6032918;23;20034;-78
2022/08/03 00:23:29;;;;;;;5.30;5.10;;;;;;;19.80;84.10;101246.22;6002817;23;20082;-76
2022/08/03 00:26:16;;;;;;;5.43;5.22;;;;;;;19.23;84.04;101157.69;6048404;23;20088;-78
2022/08/03 00:28:42;;;;;;;5.75;5.38;;;;;;;19.78;84.65;101246.34;6032786;23;20106;-78
2022/08/03 00:31:09;;;;;;;6.70;6.40;;;;;;;19.60;84.75;101213.22;6012109;23;20030;-76
2022/08/03 00:33:39;;;;;;;5.50;5.30;;;;;;;19.58;85.46;101215.16;6031284;23;20022;-78
2022/08/03 00:36:26;;;;;;;5.97;5.50;;;;;;;19.65;85.69;101232.34;6023764;23;20191;-76
2022/08/03 00:38:55;;;;;;;5.53;5.32;;;;;;;19.16;85.68;101177.75;6026437;23;20058;-78
2022/08/03 00:41:21;;;;;;;5.40;5.20;;;;;;;19.55;86.66;101236.72;6025721;23;20499;-76
2022/08/03 00:43:48;;;;;;;5.80;5.50;;;;;;;18.33;87.08;101042.47;6031384;23;20017;-79
2022/08/03 00:46:14;;;;;;;5.60;5.30;;;;;;;19.09;86.76;101183.56;6023679;23;20007;-77
2022/08/03 00:48:51;;;;;;;5.47;5.28;;;;;;;19.35;86.63;101233.84;6030062;23;20545;-76
2022/08/03 00:51:21;;;;;;;5.55;5.35;;;;;;;19.17;85.91;101217.56;6004509;23;20098;-77
2022/08/03 00:53:49;;;;;;;5.22;5.03;;;;;;;19.18;87.25;101229.88;6021152;23;20038;-78
2022/08/03 00:56:19;;;;;;;5.30;5.10;;;;;;;19.12;87.76;101233.03;6024969;23;20035;-79
2022/08/03 00:58:46;;;;;;;5.85;5.55;;;;;;;19.02;89.12;101227.59;6025331;23;20179;-76
2022/08/03 01:01:13;;;;;;;5.75;5.45;;;;;;;18.96;89.15;101228.06;6030965;23;20035;-79
2022/08/03 01:03:40;;;;;;;5.80;5.50;;;;;;;18.88;90.69;101241.13;6028712;23;20027;-77
2022/08/03 01:06:17;;;;;;;6.70;6.40;;;;;;;18.85;91.02;101220.94;6051263;23;20075;-76
2022/08/03 01:08:51;;;;;;;5.50;5.30;;;;;;;18.84;91.30;101215.75;6026628;23;20093;-77
2022/08/03 01:11:39;;;;;;;5.53;5.22;;;;;;;18.67;91.00;101193.97;6032928;23;20543;-78
2022/08/03 01:14:40;;;;;;;5.28;5.07;;;;;;;18.32;91.74;101136.44;6026151;23;20007;-77
2022/08/03 01:17:18;;;;;;;6.40;6.10;;;;;;;18.80;92.71;101214.31;6056759;23;20026;-78
2022/08/03 01:19:47;;;;;;;5.30;5.10;;;;;;;18.80;92.85;101211.63;6020789;23;20035;-77
2022/08/03 01:22:39;;;;;;;5.93;5.63;;;;;;;18.40;92.62;101143.84;6021333;23;20034;-77
2022/08/03 01:25:19;;;;;;;6.82;6.53;;;;;;;18.82;92.82;101210.56;6045722;23;20029;-77
2022/08/03 01:28:40;;;;;;;5.93;5.63;;;;;;;18.80;92.44;101207.16;6031129;23;20029;-77
2022/08/03 01:31:10;;;;;;;6.15;5.85;;;;;;;18.79;93.45;101200.16;5918737;24;20032;-77
2022/08/03 01:33:45;;;;;;;5.32;5.13;;;;;;;18.81;93.76;101200.88;6016182;23;20440;-77
2022/08/03 01:36:14;;;;;;;6.53;6.22;;;;;;;18.78;93.24;101202.91;6023013;23;20049;-77
2022/08/03 01:38:47;;;;;;;5.50;5.30;;;;;;;18.42;94.05;101149.00;6021512;23;20021;-77
2022/08/03 01:41:18;;;;;;;5.32;5.13;;;;;;;18.21;94.23;101140.91;6022121;23;20031;-77
2022/08/03 01:43:48;;;;;;;5.50;5.30;;;;;;;18.59;94.44;101200.84;6038755;23;20074;-76
2022/08/03 01:46:37;;;;;;;5.90;5.60;;;;;;;18.44;94.49;101179.84;6036763;23;20011;-76
2022/08/03 01:49:07;;;;;;;6.13;5.82;;;;;;;18.60;94.93;101210.50;6051819;23;20041;-79
2022/08/03 01:51:37;;;;;;;5.38;5.15;;;;;;;18.48;94.73;101170.66;6029677;23;20084;-78
2022/08/03 01:54:25;;;;;;;5.60;5.30;;;;;;;18.32;94.74;101139.09;6016405;23;20484;-77
2022/08/03 01:56:57;;;;;;;5.43;5.13;;;;;;;18.08;94.46;101109.97;6021157;23;20077;-77
2022/08/03 01:59:27;;;;;;;5.22;5.00;;;;;;;18.31;94.46;101136.56;6035711;23;20094;-76
2022/08/03 02:01:56;;;;;;;5.65;5.35;;;;;;;18.09;94.24;101110.81;6029587;23;20171;-77
2022/08/03 02:04:45;;;;;;;5.25;5.05;;;;;;;17.56;94.90;101039.63;6029730;23;20023;-76
2022/08/03 02:07:13;;;;;;;6.03;5.72;;;;;;;18.03;94.95;101104.16;6024297;23;20017;-76
2022/08/03 02:09:43;;;;;;;6.03;5.32;;;;;;;18.28;95.50;101144.75;6025014;23;20026;-78
2022/08/03 02:12:12;;;;;;;6.65;6.35;;;;;;;18.41;94.79;101165.94;6007190;23;20495;-77
2022/08/03 02:14:42;;;;;;;5.90;5.60;;;;;;;17.28;95.02;100971.84;6029471;23;20027;-77
2022/08/03 02:17:09;;;;;;;6.18;5.88;;;;;;;18.52;95.48;101187.19;6018069;23;20569;-77
2022/08/03 02:19:37;;;;;;;5.53;5.30;;;;;;;18.51;95.45;101180.19;6033865;23;20066;-77
2022/08/03 02:22:07;;;;;;;6.55;6.25;;;;;;;18.00;95.77;101112.38;6017998;23;20034;-77
2022/08/03 02:24:33;;;;;;;6.63;5.03;;;;;;;18.32;95.96;101152.41;6029526;23;20014;-77
2022/08/03 02:27:02;;;;;;;5.70;5.50;;;;;;;17.81;96.92;101075.72;6002789;23;20165;-78
2022/08/03 02:29:33;;;;;;;5.20;5.00;;;;;;;17.79;97.13;101076.81;6031755;23;20106;-76
2022/08/03 02:32:12;;;;;;;5.57;5.38;;;;;;;17.40;97.04;101031.97;6017937;23;20645;-77
2022/08/03 02:34:43;;;;;;;5.63;5.32;;;;;;;18.41;96.67;101179.22;6029775;23;20010;-77
2022/08/03 02:37:11;;;;;;;6.25;5.95;;;;;;;18.25;96.40;101147.66;5987182;23;20042;-78
2022/08/03 02:39:41;;;;;;;5.40;5.10;;;;;;;18.21;96.79;101147.06;6053924;23;20391;-77
2022/08/03 02:42:10;;;;;;;6.65;6.35;;;;;;;18.38;96.71;101164.38;6019995;23;20050;-78
2022/08/03 02:44:40;;;;;;;5.40;5.20;;;;;;;17.54;97.27;101039.72;6049633;23;20107;-76
2022/08/03 02:47:09;;;;;;;6.28;5.97;;;;;;;18.18;97.73;101152.63;6024648;23;20019;-78
2022/08/03 02:49:37;;;;;;;5.50;5.30;;;;;;;17.95;99.12;101125.16;6023986;23;20037;-78
2022/08/03 02:52:23;;;;;;;6.95;6.57;;;;;;;18.04;100.00;101145.72;6011710;23;20019;-74
2022/08/03 02:54:53;;;;;;;5.50;5.28;;;;;;;17.77;100.00;101110.59;6056080;23;20514;-77
2022/08/03 02:57:21;;;;;;;5.40;5.15;;;;;;;18.05;100.00;101171.28;6015843;23;20018;-77
2022/08/03 02:59:49;;;;;;;5.55;5.25;;;;;;;18.04;100.00;101161.66;6027122;23;20053;-78
2022/08/03 03:02:17;;;;;;;5.65;5.35;;;;;;;18.01;100.00;101161.88;6009328;23;20025;-76
2022/08/03 03:04:44;;;;;;;5.72;5.45;;;;;;;18.00;100.00;101159.31;6053594;23;20065;-79
2022/08/03 03:07:32;;;;;;;5.20;5.00;;;;;;;17.98;100.00;101164.78;6024318;23;20023;-77
2022/08/03 03:10:20;;;;;;;6.43;6.13;;;;;;;17.57;100.00;101102.34;6033210;23;20010;-76
2022/08/03 03:12:49;;;;;;;5.10;4.90;;;;;;;17.94;100.00;101157.97;6025027;23;20020;-78
2022/08/03 03:15:15;;;;;;;5.60;5.10;;;;;;;17.91;100.00;101158.22;6052784;23;20028;-76
2022/08/03 03:17:43;;;;;;;6.10;5.70;;;;;;;17.85;100.00;101164.84;6023849;23;20026;-77
2022/08/03 03:20:10;;;;;;;6.68;6.38;;;;;;;16.77;100.00;100978.28;6029408;23;20023;-76
2022/08/03 03:22:38;;;;;;;5.70;5.30;;;;;;;17.40;100.00;101093.00;6016224;23;20165;-76
2022/08/03 03:25:09;;;;;;;6.88;6.57;;;;;;;17.53;100.00;101107.00;6050170;23;20037;-75
2022/08/03 03:27:35;;;;;;;5.22;5.00;;;;;;;16.57;100.00;100965.66;6025946;23;20021;-77
2022/08/03 03:30:04;;;;;;;6.35;6.05;;;;;;;17.39;100.00;101096.59;6023442;23;20089;-78
2022/08/03 03:32:31;;;;;;;5.32;5.13;;;;;;;17.44;100.00;101105.06;6017648;23;20625;-77
2022/08/03 03:34:58;;;;;;;6.32;6.03;;;;;;;17.30;100.00;101076.06;6052412;23;20031;-77
2022/08/03 03:37:28;;;;;;;5.40;5.20;;;;;;;17.56;100.00;101119.22;6010823;23;20018;-76
2022/08/03 03:39:54;;;;;;;5.55;5.28;;;;;;;17.24;100.00;101081.81;6054718;23;20093;-76
2022/08/03 03:42:21;;;;;;;5.50;5.30;;;;;;;17.72;100.00;101162.25;6025392;23;20026;-77
2022/08/03 03:44:48;;;;;;;5.80;5.50;;;;;;;17.54;100.00;101143.22;6058379;23;20061;-76
2022/08/03 03:47:14;;;;;;;5.90;5.60;;;;;;;17.42;100.00;101133.53;6019454;23;20034;-76
2022/08/03 03:49:42;;;;;;;5.50;5.20;;;;;;;17.62;100.00;101165.66;6027880;23;20035;-76
2022/08/03 03:52:09;;;;;;;6.65;6.35;;;;;;;17.25;100.00;101108.22;6020064;23;20015;-76
2022/08/03 03:54:44;;;;;;;5.15;4.95;;;;;;;17.60;100.00;101162.28;6053393;23;20295;-77
2022/08/03 03:57:10;;;;;;;6.85;6.55;;;;;;;17.38;100.00;101136.50;5996818;23;20019;-76
2022/08/03 03:59:40;;;;;;;5.20;5.00;;;;;;;17.42;100.00;101143.25;6056020;23;20076;-77
2022/08/03 04:02:07;;;;;;;5.30;5.00;;;;;;;16.90;100.00;101047.19;5992796;23;20007;-76
2022/08/03 04:13:13;;;;;;;6.10;5.80;;;;;;;16.88;100.00;101036.69;6016536;23;20032;-77
2022/08/03 04:15:40;;;;;;;5.50;5.20;;;;;;;17.25;100.00;101084.34;6034745;23;20098;-76
2022/08/03 04:18:12;;;;;;;6.78;6.47;;;;;;;17.61;100.00;101101.13;6011188;23;20030;-75
2022/08/03 04:20:43;;;;;;;5.47;5.28;;;;;;;18.18;100.00;101139.34;6023325;23;20041;-76
2022/08/03 04:23:14;;;;;;;6.20;5.90;;;;;;;18.31;100.00;101134.75;6012620;23;20384;-76
2022/08/03 04:25:42;;;;;;;5.10;4.90;;;;;;;18.05;100.00;101066.88;6022448;23;20090;-75
2022/08/03 04:28:10;;;;;;;6.50;6.20;;;;;;;18.58;99.94;101090.16;5985258;23;20095;-75
2022/08/03 04:30:58;;;;;;;5.60;5.32;;;;;;;19.04;97.17;101102.44;6023725;23;20042;-77
2022/08/03 04:33:26;;;;;;;5.75;5.45;;;;;;;18.67;95.11;100999.88;6007392;23;20011;-77
2022/08/03 04:35:58;;;;;;;5.88;5.55;;;;;;;19.61;92.18;101052.50;6058223;23;20077;-76
2022/08/03 04:38:31;;;;;;;5.30;5.10;;;;;;;20.22;88.33;101041.91;6027822;23;20396;-78
2022/08/03 04:40:59;;;;;;;6.20;5.90;;;;;;;19.95;85.21;100975.91;6024724;23;20043;-77
2022/08/03 04:43:27;;;;;;;5.25;5.05;;;;;;;20.85;84.18;101078.19;6023205;23;20135;-76
2022/08/03 04:45:55;;;;;;;6.00;5.70;;;;;;;21.37;82.20;101096.63;6035702;23;20040;-78
2022/08/03 04:48:21;;;;;;;5.82;5.53;;;;;;;20.95;81.13;100996.34;6022328;23;20084;-75
2022/08/03 04:50:48;;;;;;;5.60;5.30;;;;;;;21.71;79.70;101097.91;6028355;23;20026;-76
2022/08/03 04:53:16;;;;;;;6.20;5.90;;;;;;;21.27;79.15;101045.94;6016546;23;20015;-75
2022/08/03 04:55:43;;;;;;;6.00;5.70;;;;;;;21.76;78.96;101037.88;6016774;23;20093;-76
2022/08/03 04:58:11;;;;;;;6.75;6.43;;;;;;;21.99;76.96;101041.88;6027859;23;20029;-76
2022/08/03 05:00:38;;;;;;;5.90;5.55;;;;;;;22.48;75.51;101026.47;6054931;23;20011;-77
2022/08/03 05:03:07;;;;;;;6.63;6.32;;;;;;;23.54;72.13;101084.75;6013224;23;20305;-76
2022/08/03 05:05:53;;;;;;;5.43;5.22;;;;;;;23.64;69.38;101031.91;6058874;23;20078;-76
2022/08/03 05:08:35;;;;;;;5.90;5.60;;;;;;;24.33;68.12;101085.59;6027471;18;20057;-77
2022/08/03 05:11:14;;;;;;;5.78;5.47;;;;;;;24.20;65.91;101090.56;5934009;23;20026;-77
2022/08/03 05:13:44;;;;;;;5.90;5.60;;;;;;;23.70;66.13;101033.09;6008801;23;20015;-76
2022/08/03 05:16:11;;;;;;;5.82;5.53;;;;;;;24.26;66.93;101084.56;6008422;23;20018;-76
2022/08/03 05:18:37;;;;;;;6.10;5.80;;;;;;;24.69;64.41;101080.06;6003365;23;20764;-76
2022/08/03 05:21:04;;;;;;;6.93;6.53;;;;;;;24.37;62.85;101019.03;5995280;23;20035;-76
2022/08/03 05:23:33;;;;;;;5.93;5.63;;;;;;;24.48;64.11;101027.63;6015712;23;20605;-76
2022/08/03 05:26:00;;;;;;;6.65;6.35;;;;;;;24.81;62.87;101029.59;5998854;23;20095;-77
2022/08/03 05:28:26;;;;;;;6.20;5.90;;;;;;;25.39;61.19;101068.94;5984531;23;20038;-76
2022/08/03 05:30:52;;;;;;;5.70;5.50;;;;;;;25.60;60.52;101070.25;6003813;23;20449;-75
2022/08/03 05:33:19;;;;;;;5.72;5.50;;;;;;;25.44;59.83;101041.59;6002776;23;20102;-76
2022/08/03 05:35:45;;;;;;;6.22;5.93;;;;;;;25.55;60.05;101097.66;5975724;23;20018;-77
2022/08/03 05:38:29;;;;;;;6.00;5.70;;;;;;;25.70;60.78;101099.66;6010098;23;20015;-76
2022/08/03 05:41:02;;;;;;;7.97;7.37;;;;;;;25.49;58.64;101006.97;5953805;23;20228;-75
2022/08/03 05:43:52;;;;;;;6.00;5.70;;;;;;;26.22;58.22;101057.06;5995500;23;20019;-76
2022/08/03 05:46:20;;;;;;;5.90;5.60;;;;;;;26.49;57.98;101009.16;5953700;23;20458;-77
2022/08/03 05:48:46;;;;;;;5.93;5.63;;;;;;;26.78;56.64;101066.91;6004640;23;20011;-76
2022/08/03 05:51:13;;;;;;;6.60;6.20;;;;;;;27.47;55.81;101072.34;5973236;23;20070;-76
2022/08/03 05:53:41;;;;;;;6.30;6.00;;;;;;;27.33;54.56;101082.03;5989254;23;20008;-76
2022/08/03 05:56:08;;;;;;;7.07;6.75;;;;;;;27.39;54.95;101084.00;5991673;23;20111;-76
2022/08/03 05:58:40;;;;;;;5.97;5.68;;;;;;;27.55;54.43;101064.16;5969880;23;20087;-77
2022/08/03 06:01:07;;;;;;;6.80;6.50;;;;;;;27.43;54.05;101044.91;6000959;23;20082;-76
2022/08/03 06:03:33;;;;;;;6.65;5.75;;;;;;;27.27;53.07;101055.81;5987901;23;20031;-76
2022/08/03 06:06:00;;;;;;;6.70;6.40;;;;;;;26.64;54.11;101052.34;5969858;23;20016;-77
2022/08/03 06:08:29;;;;;;;6.20;5.90;;;;;;;26.34;56.55;101081.75;5979560;23;20683;-76
2022/08/03 06:10:56;;;;;;;6.22;5.93;;;;;;;26.37;56.71;101069.78;6027434;23;20039;-76
2022/08/03 06:13:22;;;;;;;6.50;6.20;;;;;;;25.46;58.21;101059.22;6024518;23;20042;-76
2022/08/03 06:15:48;;;;;;;5.95;5.65;;;;;;;25.23;60.17;101104.69;6032018;23;20015;-77
2022/08/03 06:18:15;;;;;;;6.57;6.25;;;;;;;24.75;61.16;101111.59;5989060;23;20027;-76
2022/08/03 06:20:41;;;;;;;6.20;5.90;;;;;;;24.29;63.46;101141.41;6024592;23;20019;-77
2022/08/03 06:23:08;;;;;;;7.30;6.90;;;;;;;24.05;65.31;101120.63;6020241;23;20106;-77
2022/08/03 06:25:42;;;;;;;6.22;5.93;;;;;;;23.94;64.91;101104.00;6020958;23;20089;-75
2022/08/03 06:28:09;;;;;;;6.93;6.63;;;;;;;24.01;65.08;101078.22;6003947;23;20552;-75
2022/08/03 06:30:54;;;;;;;5.90;5.60;;;;;;;24.80;64.42;101149.56;6036128;23;20015;-76
2022/08/03 06:33:25;;;;;;;6.05;5.75;;;;;;;24.15;63.51;101026.66;6025139;23;20034;-75
2022/08/03 06:36:11;;;;;;;6.50;6.20;;;;;;;24.57;63.17;101092.94;6018905;23;20064;-75
2022/08/03 06:38:37;;;;;;;6.45;6.15;;;;;;;24.59;64.53;101133.84;6001050;23;20569;-76
2022/08/03 06:41:04;;;;;;;7.55;7.15;;;;;;;24.02;64.65;101071.88;6023960;23;20624;-75
2022/08/03 06:43:30;;;;;;;6.03;5.72;;;;;;;24.41;64.67;101103.56;5998276;23;20047;-76
2022/08/03 06:46:01;;;;;;;6.88;6.57;;;;;;;24.45;65.06;101099.56;5999816;23;20026;-75
2022/08/03 06:48:27;;;;;;;6.53;6.22;;;;;;;24.86;64.33;101153.44;5971407;23;20440;-75
2022/08/03 06:50:54;;;;;;;6.13;5.82;;;;;;;24.76;63.53;101094.50;6008728;23;20031;-75
2022/08/03 06:53:21;;;;;;;6.13;5.82;;;;;;;24.97;63.09;101112.84;6014216;23;20756;-76
2022/08/03 06:55:47;;;;;;;6.00;5.70;;;;;;;24.84;63.05;101070.38;5997113;23;20027;-75
2022/08/03 06:58:20;;;;;;;6.32;6.03;;;;;;;25.21;61.90;101132.72;6022596;23;20026;-76
2022/08/03 07:00:46;;;;;;;6.07;5.68;;;;;;;25.27;61.91;101124.00;6000153;23;20049;-76
2022/08/03 07:03:13;;;;;;;6.60;6.30;;;;;;;25.27;60.46;101111.41;6017335;23;20023;-76
2022/08/03 07:05:41;;;;;;;6.07;5.78;;;;;;;25.29;60.27;101130.06;6008391;23;20731;-75
2022/08/03 07:08:07;;;;;;;7.28;6.97;;;;;;;25.20;60.01;101096.13;6018492;23;20568;-75
2022/08/03 07:10:34;;;;;;;6.10;5.80;;;;;;;24.97;60.97;101059.16;6014717;23;20499;-77
2022/08/03 07:13:00;;;;;;;6.95;6.65;;;;;;;25.54;61.57;101143.50;6022495;23;20027;-75
2022/08/03 07:15:27;;;;;;;6.70;6.40;;;;;;;25.32;61.52;101102.88;5990603;23;20035;-75
2022/08/03 07:18:13;;;;;;;6.63;6.30;;;;;;;25.47;60.08;101092.28;6017202;23;20055;-75
2022/08/03 07:20:40;;;;;;;5.97;5.68;;;;;;;25.25;59.97;101040.91;6000048;23;20024;-74
2022/08/03 07:23:06;;;;;;;6.60;6.30;;;;;;;25.76;58.66;101072.97;6017929;23;20090;-77
2022/08/03 07:25:33;;;;;;;6.10;5.80;;;;;;;26.24;58.02;101102.59;6021847;23;20011;-74
2022/08/03 07:28:01;;;;;;;7.57;6.93;;;;;;;26.31;56.49;101092.00;6023768;23;20026;-75
2022/08/03 07:30:28;;;;;;;6.57;6.10;;;;;;;26.65;56.78;101118.66;5966861;23;20008;-76
2022/08/03 07:32:54;;;;;;;6.40;6.10;;;;;;;26.71;55.68;101060.56;6018830;23;20011;-76
2022/08/03 07:35:21;;;;;;;5.78;5.47;;;;;;;27.31;54.66;101121.81;6018851;23;20031;-76
2022/08/03 07:37:51;;;;;;;6.57;6.28;;;;;;;26.48;53.85;100991.34;6021955;23;20007;-77
2022/08/03 07:40:20;;;;;;;5.90;5.60;;;;;;;27.24;53.82;101120.84;5991946;23;20035;-76
2022/08/03 07:42:47;;;;;;;6.00;5.70;;;;;;;27.34;54.11;101145.69;6023859;23;20025;-76
2022/08/03 07:45:20;;;;;;;6.45;5.85;;;;;;;26.81;54.03;101029.69;5992790;23;20014;-77
2022/08/03 07:47:46;;;;;;;6.10;5.60;;;;;;;26.98;54.95;101123.84;6007076;23;20026;-76
2022/08/03 07:50:19;;;;;;;5.82;5.53;;;;;;;26.31;54.06;101011.28;5992669;23;20640;-77
2022/08/03 07:52:49;;;;;;;5.78;5.47;;;;;;;27.18;53.43;101118.84;6020340;23;20026;-77
2022/08/03 07:55:21;;;;;;;6.13;5.82;;;;;;;26.87;53.38;101060.47;6021043;23;20033;-76
2022/08/03 07:58:05;;;;;;;6.00;5.70;;;;;;;27.51;53.88;101140.22;5992078;23;20011;-77
2022/08/03 08:00:32;;;;;;;5.90;5.60;;;;;;;27.15;53.17;101124.59;6024778;23;20021;-76
2022/08/03 08:02:59;;;;;;;6.82;6.53;;;;;;;27.05;53.56;101068.25;6015801;23;20018;-76
2022/08/03 08:05:26;;;;;;;6.05;5.70;;;;;;;27.38;52.89;101152.44;6022150;23;20086;-76
2022/08/03 08:07:53;;;;;;;5.85;5.55;;;;;;;27.32;53.32;101123.47;6004749;23;20010;-77
2022/08/03 08:10:19;;;;;;;5.70;5.40;;;;;;;27.65;53.83;101134.03;6018930;23;20014;-76
2022/08/03 08:12:47;;;;;;;6.00;5.70;;;;;;;27.33;53.61;101130.56;5998659;23;20018;-76
2022/08/03 08:15:13;;;;;;;8.57;8.13;;;;;;;27.71;53.23;101140.56;6021801;23;20027;-76
2022/08/03 08:17:48;;;;;;;6.03;5.72;;;;;;;27.84;52.25;101111.06;6021661;23;20010;-77
2022/08/03 08:20:20;;;;;;;6.05;5.75;;;;;;;27.83;52.02;101068.97;6016892;23;20023;-76
2022/08/03 08:23:02;;;;;;;6.43;6.03;;;;;;;28.37;52.07;101122.69;6017427;23;20025;-77
2022/08/03 08:25:52;;;;;;;5.90;5.60;;;;;;;28.08;50.72;101153.19;6024844;23;20021;-77
2022/08/03 08:28:20;;;;;;;6.03;5.72;;;;;;;28.31;51.66;101133.41;5984712;23;20019;-77
2022/08/03 08:30:59;;;;;;;7.13;6.75;;;;;;;28.57;50.40;101133.78;6016555;23;20094;-78
2022/08/03 08:33:26;;;;;;;6.00;5.70;;;;;;;28.33;48.75;101086.28;6025043;23;20094;-76
2022/08/03 08:36:07;;;;;;;7.77;7.37;;;;;;;28.37;48.90;101040.88;6010582;23;20033;-76
2022/08/03 08:38:41;;;;;;;5.80;5.50;;;;;;;28.88;49.07;101100.28;6025386;23;20046;-76
2022/08/03 08:41:09;;;;;;;7.05;6.72;;;;;;;28.97;48.30;101118.06;6021743;23;20096;-75
2022/08/03 08:43:36;;;;;;;6.10;5.80;;;;;;;28.73;46.75;101083.28;6003139;23;20105;-77
2022/08/03 08:46:03;;;;;;;5.80;5.50;;;;;;;28.92;46.71;101093.44;6038234;23;20787;-75
2022/08/03 08:48:30;;;;;;;5.80;5.50;;;;;;;29.18;47.18;101111.00;6002838;23;20125;-76
2022/08/03 08:50:59;;;;;;;6.13;5.82;;;;;;;29.06;47.90;101099.84;6029884;23;20110;-77
2022/08/03 08:53:28;;;;;;;5.55;5.35;;;;;;;29.01;45.98;101092.31;6000732;23;20035;-75
2022/08/03 08:55:59;;;;;;;6.20;5.90;;;;;;;29.12;47.30;101109.91;6025480;23;20022;-75
2022/08/03 08:58:35;;;;;;;6.00;5.70;;;;;;;29.11;46.38;101096.59;6007970;23;20493;-75
2022/08/03 09:01:02;;;;;;;6.35;6.05;;;;;;;29.37;47.02;101106.84;6025676;23;20010;-75
2022/08/03 09:03:32;;;;;;;5.72;5.47;;;;;;;29.21;45.64;101048.47;6014458;23;20342;-75
2022/08/03 09:06:00;;;;;;;6.47;6.18;;;;;;;29.83;45.75;101123.47;6030300;23;20574;-75
2022/08/03 09:08:28;;;;;;;5.90;5.60;;;;;;;29.68;45.23;101114.56;6000549;23;20033;-74
2022/08/03 09:10:54;;;;;;;5.72;5.43;;;;;;;29.67;45.02;101096.69;6037250;23;20093;-76
2022/08/03 09:13:21;;;;;;;5.90;5.60;;;;;;;29.85;45.14;101130.53;6003572;23;20031;-75
2022/08/03 09:15:48;;;;;;;5.70;5.50;;;;;;;29.74;45.91;101081.34;6023747;23;20026;-75
2022/08/03 09:18:32;;;;;;;5.80;5.50;;;;;;;29.17;45.24;101012.88;6000959;23;20043;-76
2022/08/03 09:21:17;;;;;;;;;;;;;;;29.97;44.32;101128.97;6000718;23;20027;-74
2022/08/03 09:23:58;;;;;;;5.93;5.63;;;;;;;30.33;43.70;101122.56;6029221;23;20444;-76
2022/08/03 09:26:32;;;;;;;5.90;5.60;;;;;;;30.47;44.37;101124.31;6022846;23;20022;-72
2022/08/03 09:29:05;;;;;;;5.70;5.40;;;;;;;30.23;42.41;101136.44;5999142;23;20078;-74
2022/08/03 09:31:41;;;;;;;6.03;5.72;;;;;;;30.06;44.16;101133.19;6029915;23;20111;-72
2022/08/03 09:34:15;;;;;;;7.07;6.78;;;;;;;30.09;43.11;101083.25;5986643;23;20027;-74
2022/08/03 09:36:50;;;;;;;5.80;5.50;;;;;;;30.41;43.66;101073.63;6028613;23;20587;-74
2022/08/03 09:39:19;;;;;;;5.85;5.55;;;;;;;30.47;41.83;101078.28;5973275;23;20086;-75
2022/08/03 09:42:16;;;;;;;6.10;5.80;;;;;;;30.95;43.25;101123.47;6021183;23;20010;-75
2022/08/03 09:44:49;;;;;;;5.90;5.60;;;;;;;30.72;42.58;101088.56;6010496;23;20015;-76
2022/08/03 09:47:30;;;;;;;5.85;5.55;;;;;;;31.31;42.92;101123.13;6003514;23;20447;-76
2022/08/03 09:50:00;;;;;;;6.22;5.93;;;;;;;31.33;41.84;101085.78;5996213;23;20023;-78
2022/08/03 09:52:48;;;;;;;6.28;5.97;;;;;;;31.19;41.42;101063.25;6022212;23;20038;-76
2022/08/03 09:55:22;;;;;;;6.00;5.70;;;;;;;30.31;41.33;100956.75;5996735;23;20102;-77
2022/08/03 09:58:09;;;;;;;7.18;6.85;;;;;;;30.92;40.99;101054.25;5971780;23;20456;-76
2022/08/03 10:01:03;;;;;;;5.90;5.60;;;;;;;31.27;40.51;101093.91;6028034;23;20814;-77
2022/08/03 10:03:33;;;;;;;5.75;5.45;;;;;;;31.56;41.08;101123.38;5995826;23;20027;-76
2022/08/03 10:06:15;;;;;;;6.47;6.18;;;;;;;31.37;38.59;101073.47;6024070;23;20015;-77
2022/08/03 10:08:41;;;;;;;5.90;5.60;;;;;;;31.28;38.93;101035.94;5995423;23;20047;-75
2022/08/03 10:11:08;;;;;;;5.90;5.60;;;;;;;31.21;39.63;101044.03;6025288;23;20018;-75
2022/08/03 10:13:35;;;;;;;5.70;5.43;;;;;;;31.94;39.54;101130.84;6027903;23;20548;-75
2022/08/03 10:16:03;;;;;;;5.78;5.47;;;;;;;32.06;39.72;101122.13;6016031;23;20019;-75
2022/08/03 10:18:49;;;;;;;5.75;5.47;;;;;;;31.74;38.76;101073.06;6018916;23;20029;-76
2022/08/03 10:21:19;;;;;;;5.80;5.50;;;;;;;31.98;38.67;101131.28;5992893;23;20027;-76
2022/08/03 10:23:46;;;;;;;5.95;5.65;;;;;;;31.98;38.86;101104.13;6000937;23;20452;-74
2022/08/03 10:26:17;;;;;;;6.70;6.40;;;;;;;32.07;39.09;101129.19;5967806;23;20030;-75
2022/08/03 10:28:49;;;;;;;5.63;5.43;;;;;;;31.97;37.92;101080.72;6021867;23;20018;-76
2022/08/03 10:31:19;;;;;;;5.60;5.30;;;;;;;32.09;38.13;101087.19;5973413;23;20093;-73
2022/08/03 10:33:50;;;;;;;5.40;5.20;;;;;;;32.13;37.52;101123.75;6022079;23;20026;-76
2022/08/03 10:36:23;;;;;;;5.55;5.32;;;;;;;32.08;37.35;101079.28;6004289;23;20093;-76
2022/08/03 10:38:52;;;;;;;5.63;5.38;;;;;;;32.27;36.21;101129.16;5994808;23;20036;-76
2022/08/03 10:41:21;;;;;;;5.70;5.40;;;;;;;31.84;37.78;101132.34;6024510;23;20089;-77
2022/08/03 10:44:07;;;;;;;5.65;5.35;;;;;;;32.08;37.74;101126.28;5985056;23;20010;-75
2022/08/03 10:46:37;;;;;;;6.55;6.15;;;;;;;32.03;38.17;101104.34;6031761;23;20026;-76
2022/08/03 10:49:13;;;;;;;6.70;6.40;;;;;;;31.61;37.10;101003.34;5996325;23;20031;-75
2022/08/03 10:51:43;;;;;;;5.80;5.50;;;;;;;32.10;37.36;101050.03;6023624;23;20068;-76
2022/08/03 10:57:33;;;;;;;6.75;6.45;;;;;;;32.36;37.42;101115.13;6000202;23;20033;-76
2022/08/03 10:57:52;;;;;;;5.80;5.50;;;;;;;32.82;37.10;101091.53;5992576;23;20031;-76
2022/08/03 11:00:26;;;;;;;5.80;5.50;;;;;;;32.69;35.23;101061.69;6015533;23;20026;-76
2022/08/03 11:03:15;;;;;;;6.05;5.75;;;;;;;32.82;33.07;101083.38;6020112;23;20600;-75
2022/08/03 11:05:46;;;;;;;5.82;5.43;;;;;;;32.81;33.43;101116.22;6021556;23;20484;-75
2022/08/03 11:08:20;;;;;;;6.22;5.93;;;;;;;32.73;35.49;101085.50;5985208;23;20027;-76
2022/08/03 11:10:49;;;;;;;5.88;5.57;;;;;;;33.09;36.00;101105.81;6011283;23;20023;-76
2022/08/03 11:13:18;;;;;;;5.70;5.40;;;;;;;32.90;34.75;101090.44;5990190;23;20316;-75
2022/08/03 11:15:46;;;;;;;5.70;5.35;;;;;;;32.97;34.34;101078.47;6031456;23;20025;-75
2022/08/03 11:18:13;;;;;;;7.25;6.85;;;;;;;32.89;35.98;101108.63;5991220;23;20049;-75
2022/08/03 11:20:56;;;;;;;5.60;5.40;;;;;;;32.82;35.68;101112.44;6024568;23;20025;-77
2022/08/03 11:23:43;;;;;;;5.68;5.38;;;;;;;32.67;35.22;101116.28;6013815;23;20046;-75
2022/08/03 11:26:29;;;;;;;6.00;5.70;;;;;;;32.90;36.00;101104.88;6018194;23;20019;-76
2022/08/03 11:29:27;;;;;;;6.40;6.10;;;;;;;32.90;35.33;101112.19;5999083;23;20018;-76
2022/08/03 11:31:57;;;;;;;6.00;5.70;;;;;;;32.65;34.15;101030.59;6017183;23;20042;-76
2022/08/03 11:34:24;;;;;;;5.57;5.32;;;;;;;32.97;34.51;101047.72;6019414;23;20074;-78
2022/08/03 11:37:17;;;;;;;5.60;5.40;;;;;;;33.32;34.12;101102.53;6037535;23;20030;-74
2022/08/03 11:39:46;;;;;;;5.60;5.40;;;;;;;33.33;34.70;101103.34;6023110;23;20094;-76
2022/08/03 11:42:21;;;;;;;5.97;5.68;;;;;;;33.02;35.39;101117.75;6027595;23;20480;-76
2022/08/03 11:45:07;;;;;;;5.47;5.18;;;;;;;32.38;34.62;101076.88;6040073;23;20653;-76
2022/08/03 11:47:37;;;;;;;6.10;5.70;;;;;;;32.93;36.22;101095.44;5989353;23;20496;-76
2022/08/03 11:50:17;;;;;;;;;;;;;;;32.90;35.58;101112.19;6014294;23;20311;-76
2022/08/03 11:52:44;;;;;;;5.53;5.32;;;;;;;33.34;34.43;101119.47;5997572;23;19906;-76
2022/08/03 11:55:13;;;;;;;6.53;6.22;;;;;;;33.30;34.03;101047.50;6020739;23;20097;-76